Brive-Souillac

METAR LFSL TAF LFSL
6 °C
°C
-
°C
20m
Età
10:49:51
LT
09:49
UTC
0 ft

1.000

2.000

3.000

4.000

5.000

VFR
<?= Yii::t('app', 'Wind direction') ?> <?= Yii::t('app', 'of'); ?>
020°
18:08
Tramonto
66%
Umidità
Taglio del vento
Chiuso/Neve
Raggio visivo RWY
Condizione della RWY
Visibilità verticale
Visibilità minima
CAVOK
Tendenza
Correzione
Rapporto speciale
1032 hPa
QNH
METAR LFSL 060930Z AUTO 02007KT CAVOK 06/00 Q1032 NOSIG
Cielo sereno
7 kt
7 kt
10:00
VFR
5 kt
11:00
VFR
5 kt
12:00
VFR
5 kt
13:00
VFR
5 kt
14:00
VFR
5 kt
15:00
VFR
5 kt
16:00
VFR
5 kt
10 km+
Vista
No
Base nuvolosa
7 kt
Vento
metar-taf.com/LFSL

Metar-Taf.com

Decodificatore visivo

Noi e le terze parti seguiamo il tuo comportamento su internet con i cookie. Se continui, riteniamo che tu sia d'accordo con la nostra Politica sui cookie.